Detailed System and Site Information

System Data Health
Measure Timestamp Ago Health
Web Server Live 13:28:37, 26th July 2017 0 s health
Last live-data upload from local system (nw3) 13:28:32, 26th July 2017 5 s health
Last upload of secondary data 13:00:23, 26th July 2017 28 mins health
Latest Webcam upload 13:28:08, 26th July 2017 29 s health
Last upload of 24hr data log 13:24:08, 26th July 2017 4 mins health
Last full data process 13:25:07, 26th July 2017 4 mins health
Last data downtime (>15 mins) 01:16:02, 18th July 2017 9 days
Local System and Site Information
Measure Value
WD Version & Build # 10.37R - 40
WD Start Time 08:14 29/05/17
WD Data Count 1750958
WD Memory Use 81,996 K
--- ---
Windows Uptime 8 Days 11 Hours 43 Minutes 40 Seconds
Free System Memory 2767 MB (Max: 4GB)
--- ---
Station Altitude 57 m (187 ft)
Station Latitude 51.556
Station Longitude -0.154
Machine Room Conditions
Measure Value
Temperature 22.0 °C
Temperature Trend +0.1 °C /hr
Relative Humidity 50%
Dew Point 11.1 °C
--- ---
Tmin Today 21.7 °C at 09:26
Tmax Today 23.7 °C at 00:00
Hmin Today 41% at 00:00
Hmax Today 50% at 12:20
Tmin Yesterday 21.0 °C at 05:59
Tmax Yesterday 25.3 °C at 19:03

Site owner and administrator: Ben Lee-Rodgers (2010 - present)

Last 10hrs Temp/Hum for Secondary Sensor and Indoors

Extra Sensors/Indoor

Other

Raw METAR from EGLL (Heathrow)

EGLL 261220Z AUTO 18010KT 9999 FEW005 19/18 Q1006 TEMPO BKN014
Decode Instructions
Source

WD Screenshot

not available